createdAt,value
2022-12-31T00:05:01.621Z,99681.34
2022-12-31T00:10:04.209Z,99693.13
2022-12-31T00:15:06.588Z,99699.88
2022-12-31T00:20:09.900Z,99710.47
2022-12-31T00:25:11.561Z,99707.94
2022-12-31T00:30:13.612Z,99708.94
2022-12-31T00:35:15.452Z,99731.53
2022-12-31T00:40:17.503Z,99722.88
2022-12-31T00:45:19.231Z,99735.97
2022-12-31T00:50:20.876Z,99735.63
2022-12-31T00:55:22.499Z,99743.34
2022-12-31T01:00:24.539Z,99743.19
2022-12-31T01:05:26.267Z,99746.91
2022-12-31T01:10:47.035Z,99744.19
2022-12-31T01:15:48.694Z,99752.44
2022-12-31T01:20:50.402Z,99763.56
2022-12-31T01:25:52.008Z,99768.22
2022-12-31T01:30:53.818Z,99777.25
2022-12-31T01:35:56.043Z,99783.25
2022-12-31T01:40:57.749Z,99790.13
2022-12-31T01:45:59.395Z,99809.13
2022-12-31T01:51:01.276Z,99801.59
2022-12-31T01:56:03.282Z,99808.66
2022-12-31T02:01:05.193Z,99802.97
2022-12-31T02:06:23.303Z,99810.44
2022-12-31T02:11:36.402Z,99816.44
2022-12-31T02:16:44.101Z,99816.16
2022-12-31T02:21:55.887Z,99810.94
2022-12-31T02:27:02.028Z,99818.56
2022-12-31T02:32:12.463Z,99802.59
2022-12-31T02:37:15.251Z,99809.41
2022-12-31T02:42:16.911Z,99785.16
2022-12-31T02:47:40.900Z,99796.13
2022-12-31T02:52:58.596Z,99789.88
2022-12-31T02:58:43.083Z,99759.63
2022-12-31T03:03:44.779Z,99758.19
2022-12-31T03:09:04.895Z,99775.22
2022-12-31T03:14:06.506Z,99778.09
2022-12-31T03:19:28.368Z,99776.00
2022-12-31T03:24:48.634Z,99778.13
2022-12-31T03:29:50.251Z,99783.38
2022-12-31T03:34:51.888Z,99777.44
2022-12-31T03:39:53.512Z,99785.50
2022-12-31T03:44:55.170Z,99779.50
2022-12-31T03:49:56.811Z,99762.25
2022-12-31T03:54:58.472Z,99761.06
2022-12-31T04:00:00.132Z,99766.25
2022-12-31T04:05:01.862Z,99768.09
2022-12-31T04:10:05.953Z,99762.16
2022-12-31T04:15:09.258Z,99766.53
2022-12-31T04:20:11.524Z,99763.78
2022-12-31T04:25:13.265Z,99765.88
2022-12-31T04:30:15.345Z,99755.78
2022-12-31T04:35:17.708Z,99755.91
2022-12-31T04:40:19.398Z,99744.13
2022-12-31T04:45:21.055Z,99742.56
2022-12-31T04:50:22.723Z,99740.94
2022-12-31T04:55:24.317Z,99749.28
2022-12-31T05:00:26.022Z,99751.75
2022-12-31T05:05:27.630Z,99752.00
2022-12-31T05:10:29.540Z,99742.88
2022-12-31T05:15:31.145Z,99742.50
2022-12-31T05:20:33.042Z,99741.31
2022-12-31T05:25:34.862Z,99753.84
2022-12-31T05:30:36.609Z,99737.78
2022-12-31T05:35:38.255Z,99735.63
2022-12-31T05:40:40.405Z,99740.78
2022-12-31T05:45:42.125Z,99741.91
2022-12-31T05:50:43.789Z,99737.78
2022-12-31T05:55:47.447Z,99749.47
2022-12-31T06:00:49.131Z,99761.16
2022-12-31T06:05:50.719Z,99772.09
2022-12-31T06:10:52.429Z,99788.94
2022-12-31T06:15:54.116Z,99778.09
2022-12-31T06:20:58.460Z,99784.91
2022-12-31T06:26:04.616Z,99771.91
2022-12-31T06:31:08.400Z,99764.78
2022-12-31T06:36:13.545Z,99770.31
2022-12-31T06:41:19.184Z,99778.09
2022-12-31T06:46:20.842Z,99761.63
2022-12-31T06:51:22.873Z,99766.59
2022-12-31T06:56:33.896Z,99774.53
2022-12-31T07:02:00.373Z,99793.72
2022-12-31T07:07:22.085Z,99808.03
2022-12-31T07:12:48.679Z,99817.28
2022-12-31T07:17:59.113Z,99808.03
2022-12-31T07:23:00.951Z,99810.09
2022-12-31T07:28:15.466Z,99792.50
2022-12-31T07:33:39.867Z,99794.75
2022-12-31T07:38:56.727Z,99798.72
2022-12-31T07:44:46.300Z,99793.06
2022-12-31T07:49:48.264Z,99799.03
2022-12-31T07:54:49.913Z,99794.38
2022-12-31T08:00:18.145Z,99798.34
2022-12-31T08:05:47.554Z,99815.78
2022-12-31T08:11:07.737Z,99807.56
2022-12-31T08:16:13.248Z,99834.41
2022-12-31T08:21:20.873Z,99839.28
2022-12-31T08:26:37.003Z,99817.63
2022-12-31T08:31:50.951Z,99817.78
2022-12-31T08:36:58.021Z,99815.47
2022-12-31T08:42:02.380Z,99812.56
2022-12-31T08:47:14.006Z,99824.97
2022-12-31T08:52:22.113Z,99828.13
2022-12-31T08:57:30.005Z,99814.69
2022-12-31T09:02:34.605Z,99837.53
2022-12-31T09:07:38.571Z,99835.88
2022-12-31T09:13:30.058Z,99847.22
2022-12-31T09:18:35.039Z,99863.38
2022-12-31T09:23:37.269Z,99872.31
2022-12-31T09:28:58.420Z,99862.06
2022-12-31T09:34:21.701Z,99887.88
2022-12-31T09:39:29.644Z,99891.44
2022-12-31T09:44:52.850Z,99874.03
2022-12-31T09:50:19.181Z,99879.91
2022-12-31T09:55:45.855Z,99878.66
2022-12-31T10:00:53.937Z,99876.16
2022-12-31T10:06:14.414Z,99879.91
2022-12-31T10:11:52.551Z,99865.06
2022-12-31T10:17:06.769Z,99863.81
2022-12-31T10:22:18.878Z,99882.88
2022-12-31T10:27:26.546Z,99864.66
2022-12-31T10:32:42.973Z,99873.50
2022-12-31T10:38:14.063Z,99890.50
2022-12-31T10:44:04.708Z,99881.25
2022-12-31T10:49:18.193Z,99876.66
2022-12-31T10:54:38.844Z,99899.31
2022-12-31T10:59:50.944Z,99886.94
2022-12-31T11:04:57.402Z,99886.94
2022-12-31T11:10:40.514Z,99888.00
2022-12-31T11:16:28.393Z,99875.81
2022-12-31T11:21:45.940Z,99862.38
2022-12-31T11:26:53.420Z,99879.59
2022-12-31T11:32:00.778Z,99869.09
2022-12-31T11:37:17.755Z,99859.22
2022-12-31T11:42:24.074Z,99876.03
2022-12-31T11:48:20.620Z,99888.63
2022-12-31T11:53:10.454Z,99889.25
2022-12-31T11:58:18.032Z,99891.78
2022-12-31T12:03:19.660Z,99892.41
2022-12-31T12:08:21.371Z,99899.78
2022-12-31T12:13:25.245Z,99889.09
2022-12-31T12:18:36.084Z,99903.38
2022-12-31T12:23:38.084Z,99887.19
2022-12-31T12:28:45.066Z,99898.13
2022-12-31T12:33:48.168Z,99894.50
2022-12-31T12:39:01.113Z,99884.19
2022-12-31T12:44:07.810Z,99884.41
2022-12-31T12:49:39.846Z,99886.09
2022-12-31T12:55:15.284Z,99878.72
2022-12-31T13:00:20.218Z,99881.06
2022-12-31T13:05:31.097Z,99877.28
2022-12-31T13:10:44.856Z,99887.16
2022-12-31T13:16:00.071Z,99890.34
2022-12-31T13:21:20.952Z,99894.53
2022-12-31T13:26:35.155Z,99888.25
2022-12-31T13:31:39.316Z,99884.25
2022-12-31T13:36:42.728Z,99900.88
2022-12-31T13:41:56.987Z,99899.19
2022-12-31T13:47:15.407Z,99901.06
2022-12-31T13:52:31.004Z,99923.34
2022-12-31T13:57:43.337Z,99921.41
2022-12-31T14:03:01.530Z,99923.50
2022-12-31T14:08:05.712Z,99916.34
2022-12-31T14:13:34.746Z,99916.34
2022-12-31T14:18:46.095Z,99913.81
2022-12-31T14:24:06.878Z,99941.53
2022-12-31T14:29:24.638Z,99947.63
2022-12-31T14:34:39.210Z,99974.91
2022-12-31T14:40:01.093Z,99984.97
2022-12-31T14:45:18.538Z,99990.81
2022-12-31T14:50:27.164Z,99985.56
2022-12-31T14:55:40.771Z,99973.19
2022-12-31T15:00:53.874Z,99979.53
2022-12-31T15:06:04.023Z,99979.50
2022-12-31T15:11:27.695Z,99981.38
2022-12-31T15:17:04.652Z,99993.16
2022-12-31T15:22:34.272Z,100007.03
2022-12-31T15:27:42.213Z,100001.16
2022-12-31T15:32:47.173Z,100021.28
2022-12-31T15:38:17.940Z,100031.53
2022-12-31T15:43:28.255Z,100031.44
2022-12-31T15:49:03.755Z,100026.53
2022-12-31T15:54:06.603Z,100018.72
2022-12-31T15:59:13.528Z,100022.72
2022-12-31T16:04:21.947Z,100036.81
2022-12-31T16:09:25.442Z,100034.84
2022-12-31T16:14:36.027Z,100038.00
2022-12-31T16:19:47.120Z,100045.72
2022-12-31T16:25:29.195Z,100036.75
2022-12-31T16:30:23.588Z,100042.63
2022-12-31T16:35:29.917Z,100055.69
2022-12-31T16:40:31.575Z,100053.28
2022-12-31T16:45:35.671Z,100057.56
2022-12-31T16:50:37.694Z,100065.41
2022-12-31T16:55:40.141Z,100059.84
2022-12-31T17:00:42.968Z,100059.19
2022-12-31T17:05:56.948Z,100069.19
2022-12-31T17:10:58.667Z,100061.53
2022-12-31T17:16:01.110Z,100059.34
2022-12-31T17:21:10.887Z,100058.34
2022-12-31T17:26:14.750Z,100061.72
2022-12-31T17:31:31.420Z,100070.50
2022-12-31T17:36:33.136Z,100093.31
2022-12-31T17:41:34.900Z,100092.72
2022-12-31T17:46:38.184Z,100091.00
2022-12-31T17:51:47.149Z,100103.03
2022-12-31T17:56:49.893Z,100110.94
2022-12-31T18:01:51.700Z,100122.53
2022-12-31T18:06:53.485Z,100112.47
2022-12-31T18:11:58.281Z,100124.00
2022-12-31T18:17:03.493Z,100126.38
2022-12-31T18:22:05.239Z,100119.06
2022-12-31T18:27:15.343Z,100116.81
2022-12-31T18:32:24.145Z,100112.28
2022-12-31T18:37:28.401Z,100112.84
2022-12-31T18:42:30.111Z,100099.13
2022-12-31T18:47:37.494Z,100092.97
2022-12-31T18:52:39.347Z,100102.34
2022-12-31T18:57:41.020Z,100102.63
2022-12-31T19:02:42.768Z,100082.53
2022-12-31T19:07:45.150Z,100080.38
2022-12-31T19:12:47.426Z,100074.44
2022-12-31T19:17:49.532Z,100082.16
2022-12-31T19:22:51.442Z,100082.72
2022-12-31T19:27:53.172Z,100073.44
2022-12-31T19:32:54.896Z,100067.91
2022-12-31T19:37:56.616Z,100077.84
2022-12-31T19:42:58.365Z,100077.41
2022-12-31T19:48:00.045Z,100062.97
2022-12-31T19:53:01.874Z,100069.56
2022-12-31T19:58:06.600Z,100075.84
2022-12-31T20:03:10.895Z,100071.97
2022-12-31T20:08:13.173Z,100078.41
2022-12-31T20:13:14.826Z,100067.16
2022-12-31T20:18:21.299Z,100058.13
2022-12-31T20:23:23.058Z,100071.53
2022-12-31T20:28:24.804Z,100068.66
2022-12-31T20:33:26.434Z,100062.56
2022-12-31T20:38:28.113Z,100061.03
2022-12-31T20:43:32.252Z,100047.50
2022-12-31T20:48:34.201Z,100051.38
2022-12-31T20:53:35.936Z,100054.47
2022-12-31T20:58:37.628Z,100046.56
2022-12-31T21:09:06.711Z,100014.84
2022-12-31T21:14:08.419Z,100011.59
2022-12-31T21:19:10.453Z,100003.22
2022-12-31T21:24:12.081Z,99984.34
2022-12-31T21:29:13.703Z,99969.19
2022-12-31T21:34:15.353Z,99987.03
2022-12-31T21:39:17.054Z,99993.75
2022-12-31T21:44:23.571Z,100015.81
2022-12-31T21:49:25.451Z,100023.78
2022-12-31T21:54:45.404Z,100031.97
2022-12-31T22:00:39.769Z,100038.88
2022-12-31T22:05:27.339Z,100051.06
2022-12-31T22:10:28.965Z,100069.97
2022-12-31T22:15:30.605Z,100070.38
2022-12-31T22:20:32.250Z,100064.41
2022-12-31T22:25:35.442Z,100097.88
2022-12-31T22:30:37.135Z,100092.94
2022-12-31T22:35:38.781Z,100111.00
2022-12-31T22:40:40.491Z,100119.34
2022-12-31T22:45:42.105Z,100113.88
2022-12-31T22:50:43.743Z,100124.59
2022-12-31T22:55:45.351Z,100125.06
2022-12-31T23:00:47.247Z,100136.94
2022-12-31T23:05:53.990Z,100137.53
2022-12-31T23:11:01.038Z,100141.75
2022-12-31T23:16:21.561Z,100155.09
2022-12-31T23:21:41.888Z,100168.34
2022-12-31T23:26:44.248Z,100165.75
2022-12-31T23:31:45.880Z,100170.13
2022-12-31T23:36:47.547Z,100167.78
2022-12-31T23:41:49.140Z,100160.66
2022-12-31T23:46:50.903Z,100165.91
2022-12-31T23:51:52.691Z,100164.88
2022-12-31T23:56:54.296Z,100185.56
